createdAt,value
2023-03-28T00:10:06.233Z,100
2023-03-28T00:25:02.028Z,100
2023-03-28T00:39:57.818Z,100
2023-03-28T00:54:53.505Z,100
2023-03-28T01:09:49.849Z,100
2023-03-28T01:24:45.992Z,100
2023-03-28T01:39:41.893Z,100
2023-03-28T01:54:37.850Z,100
2023-03-28T02:09:34.242Z,100
2023-03-28T02:24:30.185Z,100
2023-03-28T02:39:26.667Z,100
2023-03-28T02:54:22.959Z,100
2023-03-28T03:09:19.358Z,100
2023-03-28T03:24:15.803Z,100
2023-03-28T03:39:12.251Z,100
2023-03-28T03:54:08.692Z,100
2023-03-28T04:09:04.701Z,100
2023-03-28T04:24:00.906Z,100
2023-03-28T04:38:56.824Z,100
2023-03-28T04:53:52.690Z,100
2023-03-28T05:08:48.666Z,100
2023-03-28T05:23:44.681Z,100
2023-03-28T05:38:40.664Z,100
2023-03-28T05:53:36.960Z,100
2023-03-28T06:08:33.297Z,100
2023-03-28T06:23:29.373Z,100
2023-03-28T06:38:25.452Z,100
2023-03-28T06:53:22.041Z,100
2023-03-28T07:08:18.187Z,100
2023-03-28T07:23:14.330Z,100
2023-03-28T07:38:10.786Z,100
2023-03-28T07:53:07.152Z,100
2023-03-28T08:08:03.813Z,100
2023-03-28T08:23:00.022Z,100
2023-03-28T08:37:56.523Z,100
2023-03-28T08:52:53.304Z,100
2023-03-28T09:07:50.540Z,98.85
2023-03-28T09:22:48.518Z,100
2023-03-28T09:37:45.801Z,100
2023-03-28T09:52:42.673Z,100
2023-03-28T10:07:39.791Z,100
2023-03-28T10:22:36.380Z,99.53
2023-03-28T10:37:33.886Z,100
2023-03-28T10:52:30.903Z,86.44
2023-03-28T11:07:29.477Z,67.94
2023-03-28T11:22:24.007Z,64.89
2023-03-28T11:52:16.614Z,55.58
2023-03-28T12:07:12.822Z,47.54
2023-03-28T12:22:09.774Z,47.83
2023-03-28T12:37:06.287Z,44.97
2023-03-28T12:52:02.914Z,49.08
2023-03-28T13:06:58.887Z,46.15
2023-03-28T13:21:55.215Z,46.61
2023-03-28T13:36:51.445Z,48.11
2023-03-28T13:51:47.815Z,46.82
2023-03-28T14:06:44.333Z,47.14
2023-03-28T14:21:40.487Z,45.8
2023-03-28T14:36:36.560Z,42.79
2023-03-28T14:51:32.536Z,41.64
2023-03-28T15:06:28.977Z,41.68
2023-03-28T15:21:25.234Z,40.51
2023-03-28T15:36:21.266Z,42.91
2023-03-28T15:51:17.501Z,42.12
2023-03-28T16:06:17.867Z,46.08
2023-03-28T16:21:09.199Z,43.26
2023-03-28T16:36:05.133Z,44.22
2023-03-28T16:51:01.030Z,46.96
2023-03-28T17:05:56.944Z,49.1
2023-03-28T17:20:52.693Z,48.63
2023-03-28T17:35:48.328Z,50
2023-03-28T17:50:44.138Z,52.76
2023-03-28T18:05:40.091Z,55.09
2023-03-28T18:20:35.862Z,58.02
2023-03-28T18:35:32.242Z,59.94
2023-03-28T18:50:28.584Z,64.95
2023-03-28T19:05:24.721Z,96.58
2023-03-28T19:20:20.513Z,100
2023-03-28T19:35:16.725Z,100
2023-03-28T19:50:12.302Z,100
2023-03-28T20:20:04.106Z,100
2023-03-28T20:35:00.284Z,100
2023-03-28T20:49:56.574Z,100
2023-03-28T21:04:52.545Z,100
2023-03-28T21:19:48.416Z,100
2023-03-28T21:34:44.476Z,100
2023-03-28T21:49:41.041Z,100
2023-03-28T22:04:37.263Z,100
2023-03-28T22:19:33.514Z,100
2023-03-28T22:34:29.624Z,100
2023-03-28T22:49:25.507Z,100
2023-03-28T23:04:21.742Z,100
2023-03-28T23:19:18.144Z,100
2023-03-28T23:34:14.794Z,100
2023-03-28T23:49:11.098Z,100
